Time,TemperatureF,DewpointF,PressureIn,WindDirection,WindDirectionDegrees,WindSpeedMPH,WindSpeedGustMPH,Humidity,HourlyPrecipIn,Conditions,Clouds,dailyrainin,SolarRadiationWatts/m^2,SoftwareType,DateUTC
2013-07-10 00:00:00,71.0,68.0,-100.00,SSE,157,3.0,-999.0,91,0.09,,,-99.99,0.000000,,2013-07-10 04:00:00,
2013-07-10 00:43:00,71.0,68.0,-100.00,SSE,157,3.0,-999.0,91,0.09,,,-99.99,0.000000,,2013-07-10 04:43:00,
2013-07-10 00:52:00,71.0,68.0,-100.00,SSE,157,3.0,-999.0,91,0.09,,,-99.99,0.000000,,2013-07-10 04:52:00,
2013-07-10 01:00:00,69.0,68.0,-100.00,WSW,247,4.0,-999.0,95,0.01,,,-99.99,0.000000,,2013-07-10 05:00:00,
2013-07-10 01:42:00,69.0,68.0,-100.00,WSW,247,4.0,-999.0,95,0.01,,,-99.99,0.000000,,2013-07-10 05:42:00,
2013-07-10 01:53:00,69.0,68.0,-100.00,WSW,247,4.0,-999.0,95,0.01,,,-99.99,0.000000,,2013-07-10 05:53:00,
2013-07-10 02:00:00,69.0,67.0,-100.00,SW,225,7.0,-999.0,93,-99.99,,,-99.99,0.000000,,2013-07-10 06:00:00,
2013-07-10 02:42:00,69.0,67.0,-100.00,SW,225,7.0,-999.0,93,-99.99,,,-99.99,0.000000,,2013-07-10 06:42:00,
2013-07-10 02:52:00,69.0,67.0,-100.00,SW,225,7.0,-999.0,93,-99.99,,,-99.99,0.000000,,2013-07-10 06:52:00,
2013-07-10 03:00:00,69.0,67.0,-100.00,SW,225,8.0,-999.0,93,-99.99,,,-99.99,0.000000,,2013-07-10 07:00:00,
2013-07-10 03:43:00,69.0,67.0,-100.00,SW,225,8.0,-999.0,93,-99.99,,,-99.99,0.000000,,2013-07-10 07:43:00,
2013-07-10 03:53:00,69.0,67.0,-100.00,SW,225,8.0,-999.0,93,-99.99,,,-99.99,0.000000,,2013-07-10 07:53:00,
2013-07-10 04:00:00,67.0,66.0,-100.00,SW,225,7.0,-999.0,95,-99.99,,,-99.99,0.000000,,2013-07-10 08:00:00,
2013-07-10 04:42:00,67.0,66.0,-100.00,SW,225,7.0,-999.0,95,-99.99,,,-99.99,0.000000,,2013-07-10 08:42:00,
2013-07-10 04:53:00,67.0,66.0,-100.00,SW,225,7.0,-999.0,95,-99.99,,,-99.99,0.000000,,2013-07-10 08:53:00,
2013-07-10 05:00:00,67.0,65.0,-100.00,South,180,4.0,-999.0,94,-99.99,,,-99.99,0.000000,,2013-07-10 09:00:00,
2013-07-10 05:43:00,67.0,65.0,-100.00,South,180,4.0,-999.0,94,-99.99,,,-99.99,0.000000,,2013-07-10 09:43:00,
2013-07-10 05:53:00,67.0,65.0,-100.00,South,180,4.0,-999.0,94,-99.99,,,-99.99,0.000000,,2013-07-10 09:53:00,
2013-07-10 06:00:00,-999.0,-99.9,-100.00,South,180,4.0,-999.0,-999,-99.99,,,-99.99,,,2013-07-10 10:00:00,
2013-07-10 06:51:00,-999.0,-99.9,-100.00,South,180,4.0,-999.0,-999,-99.99,,,-99.99,,,2013-07-10 10:51:00,
2013-07-10 07:00:00,66.0,65.0,-100.00,SW,225,5.0,-999.0,94,-99.99,,,-99.99,15.080000,,2013-07-10 11:00:00,
2013-07-10 07:43:00,66.0,65.0,-100.00,SW,225,5.0,-999.0,94,-99.99,,,-99.99,15.080000,,2013-07-10 11:43:00,
2013-07-10 07:52:00,66.0,65.0,-100.00,SW,225,5.0,-999.0,94,-99.99,,,-99.99,15.080000,,2013-07-10 11:52:00,
2013-07-10 08:00:00,66.0,64.0,-100.00,South,180,4.0,-999.0,93,-99.99,,,-99.99,75.400002,,2013-07-10 12:00:00,
2013-07-10 08:43:00,66.0,64.0,-100.00,South,180,4.0,-999.0,93,-99.99,,,-99.99,75.400002,,2013-07-10 12:43:00,
2013-07-10 08:53:00,66.0,64.0,-100.00,South,180,4.0,-999.0,93,-99.99,,,-99.99,75.400002,,2013-07-10 12:53:00,
2013-07-10 09:00:00,65.0,61.0,-100.00,South,180,6.0,-999.0,85,-99.99,,,-99.99,247.080002,,2013-07-10 13:00:00,
2013-07-10 09:43:00,65.0,61.0,-100.00,South,180,6.0,-999.0,85,-99.99,,,-99.99,247.080002,,2013-07-10 13:43:00,
2013-07-10 09:52:00,65.0,61.0,-100.00,South,180,6.0,-999.0,85,-99.99,,,-99.99,247.080002,,2013-07-10 13:52:00,
2013-07-10 10:00:00,65.0,60.0,-100.00,West,270,6.0,-999.0,84,-99.99,,,-99.99,257.519989,,2013-07-10 14:00:00,
2013-07-10 10:43:00,65.0,60.0,-100.00,West,270,6.0,-999.0,84,-99.99,,,-99.99,257.519989,,2013-07-10 14:43:00,
2013-07-10 10:53:00,65.0,60.0,-100.00,West,270,6.0,-999.0,84,-99.99,,,-99.99,257.519989,,2013-07-10 14:53:00,
2013-07-10 11:00:00,64.0,59.0,-100.00,West,270,7.0,-999.0,84,-99.99,,,-99.99,182.119995,,2013-07-10 15:00:00,
2013-07-10 11:43:00,64.0,59.0,-100.00,West,270,7.0,-999.0,84,-99.99,,,-99.99,182.119995,,2013-07-10 15:43:00,
2013-07-10 11:52:00,64.0,59.0,-100.00,West,270,7.0,-999.0,84,-99.99,,,-99.99,182.119995,,2013-07-10 15:52:00,
2013-07-10 12:00:00,65.0,59.0,-100.00,West,270,5.0,-999.0,82,-99.99,,,-99.99,286.519989,,2013-07-10 16:00:00,
2013-07-10 12:44:00,65.0,59.0,-100.00,West,270,5.0,-999.0,82,-99.99,,,-99.99,286.519989,,2013-07-10 16:44:00,
2013-07-10 12:53:00,65.0,59.0,-100.00,West,270,5.0,-999.0,82,-99.99,,,-99.99,286.519989,,2013-07-10 16:53:00,
2013-07-10 13:00:00,67.0,60.0,-100.00,SSW,202,3.0,-999.0,78,-99.99,,,-99.99,498.799988,,2013-07-10 17:00:00,
2013-07-10 13:43:00,67.0,60.0,-100.00,SSW,202,3.0,-999.0,78,-99.99,,,-99.99,498.799988,,2013-07-10 17:43:00,
2013-07-10 13:53:00,67.0,60.0,-100.00,SSW,202,3.0,-999.0,78,-99.99,,,-99.99,498.799988,,2013-07-10 17:53:00,
2013-07-10 14:00:00,68.0,60.0,-100.00,West,270,6.0,-999.0,76,-99.99,,,-99.99,787.640015,,2013-07-10 18:00:00,
2013-07-10 14:44:00,68.0,60.0,-100.00,West,270,6.0,-999.0,76,-99.99,,,-99.99,787.640015,,2013-07-10 18:44:00,
2013-07-10 14:53:00,68.0,60.0,-100.00,West,270,6.0,-999.0,76,-99.99,,,-99.99,787.640015,,2013-07-10 18:53:00,
2013-07-10 15:00:00,68.0,60.0,-100.00,West,270,6.0,-999.0,76,-99.99,,,-99.99,843.320007,,2013-07-10 19:00:00,
2013-07-10 15:42:00,68.0,60.0,-100.00,West,270,6.0,-999.0,76,-99.99,,,-99.99,843.320007,,2013-07-10 19:42:00,
2013-07-10 15:53:00,68.0,60.0,-100.00,West,270,6.0,-999.0,76,-99.99,,,-99.99,843.320007,,2013-07-10 19:53:00,
2013-07-10 16:00:00,69.0,61.0,-100.00,West,270,4.0,-999.0,76,-99.99,,,-99.99,752.840027,,2013-07-10 20:00:00,
2013-07-10 16:43:00,69.0,61.0,-100.00,West,270,4.0,-999.0,76,-99.99,,,-99.99,752.840027,,2013-07-10 20:43:00,
2013-07-10 16:52:00,69.0,61.0,-100.00,West,270,4.0,-999.0,76,-99.99,,,-99.99,752.840027,,2013-07-10 20:52:00,
2013-07-10 17:00:00,67.0,60.0,-100.00,West,270,4.0,-999.0,77,-99.99,,,-99.99,388.600006,,2013-07-10 21:00:00,
2013-07-10 17:42:00,67.0,60.0,-100.00,West,270,4.0,-999.0,77,-99.99,,,-99.99,388.600006,,2013-07-10 21:42:00,
2013-07-10 17:52:00,67.0,60.0,-100.00,West,270,4.0,-999.0,77,-99.99,,,-99.99,388.600006,,2013-07-10 21:52:00,
2013-07-10 18:00:00,68.0,59.0,-100.00,West,270,3.0,-999.0,71,-99.99,,,-99.99,496.480011,,2013-07-10 22:00:00,
2013-07-10 18:43:00,68.0,59.0,-100.00,West,270,3.0,-999.0,71,-99.99,,,-99.99,496.480011,,2013-07-10 22:43:00,
2013-07-10 18:53:00,68.0,59.0,-100.00,West,270,3.0,-999.0,71,-99.99,,,-99.99,496.480011,,2013-07-10 22:53:00,
2013-07-10 19:00:00,69.0,58.0,-100.00,WNW,292,3.0,-999.0,69,-99.99,,,-99.99,335.239990,,2013-07-10 23:00:00,
2013-07-10 19:52:00,69.0,58.0,-100.00,WNW,292,3.0,-999.0,69,-99.99,,,-99.99,335.239990,,2013-07-10 23:52:00,
2013-07-10 20:00:00,66.0,58.0,-100.00,West,270,2.0,-999.0,74,-99.99,,,-99.99,118.320000,,2013-07-11 00:00:00,
2013-07-10 20:43:00,66.0,58.0,-100.00,West,270,2.0,-999.0,74,-99.99,,,-99.99,118.320000,,2013-07-11 00:43:00,
2013-07-10 20:52:00,66.0,58.0,-100.00,West,270,2.0,-999.0,74,-99.99,,,-99.99,118.320000,,2013-07-11 00:52:00,
2013-07-10 21:00:00,65.0,57.0,-100.00,WSW,247,1.0,-999.0,74,-99.99,,,-99.99,44.080002,,2013-07-11 01:00:00,
2013-07-10 21:43:00,65.0,57.0,-100.00,WSW,247,1.0,-999.0,74,-99.99,,,-99.99,44.080002,,2013-07-11 01:43:00,
2013-07-10 21:52:00,65.0,57.0,-100.00,WSW,247,1.0,-999.0,74,-99.99,,,-99.99,44.080002,,2013-07-11 01:52:00,
2013-07-10 22:00:00,64.0,56.0,-100.00,WSW,247,1.0,-999.0,75,-99.99,,,-99.99,6.960000,,2013-07-11 02:00:00,
2013-07-10 22:44:00,64.0,56.0,-100.00,WSW,247,1.0,-999.0,75,-99.99,,,-99.99,6.960000,,2013-07-11 02:44:00,
2013-07-10 22:53:00,64.0,56.0,-100.00,WSW,247,1.0,-999.0,75,-99.99,,,-99.99,6.960000,,2013-07-11 02:53:00,
2013-07-10 23:00:00,61.0,56.0,-100.00,West,270,1.0,-999.0,82,-99.99,,,-99.99,0.000000,,2013-07-11 03:00:00,
2013-07-10 23:42:00,61.0,56.0,-100.00,West,270,1.0,-999.0,82,-99.99,,,-99.99,0.000000,,2013-07-11 03:42:00,
2013-07-10 23:53:00,61.0,56.0,-100.00,West,270,1.0,-999.0,82,-99.99,,,-99.99,0.000000,,2013-07-11 03:53:00,